LDDU/DBV METAR and TAF weather

Enter ICAO airport designator
Station Type Date Time Source
LDDU METAR 2019/06/27 04:00 UTC NOAA

LDDU 270400Z 02015KT 350V050 CAVOK 27/11 Q1018 NOSIG


Station Type Date Time Source
LDDU Decoded METAR 2019/06/27 04:00 UTC NOAA

Dubrovnik / Cilipi, Croatia (LDDU) 42-34N 018-16E 165M
Jun 27, 2019 - 12:00 AM EDT / 2019.06.27 0400 UTC
Wind: from the NNE (020 degrees) at 17 MPH (15 KT) (direction variable):0
Visibility: greater than 7 mile(s):0
Temperature: 80 F (27 C)
Dew Point: 51 F (11 C)
Relative Humidity: 36%
Pressure (altimeter): 30.06 in. Hg (1018 hPa)
ob: LDDU 270400Z 02015KT 350V050 CAVOK 27/11 Q1018 NOSIG
cycle: 4

Station Type Date Time Source
LDDU TAF 2019/06/26 18:27 UTC NOAA

TAF TAF LDDU 261725Z 2618/2718 VRB02KT CAVOK TX31/2712Z TN25/2703Z
BECMG 2620/2622 02016KT
BECMG 2706/2708 22008KT
BECMG 2712/2714 30009KT

Example: see airport list